Milford, Kansas
Current Conditions -  °F | °C
As of 9:58 AM on Sunday 21 Dec 2014 (Local Time) from KFRI Reporting Station
Overcast Overcast  
Wind Chill: 34°   Ceiling: 1100
Heat Index: 42°   Visibility: 10mi
Dew Point: 41°   Wind: 14mph
Humidity: 97%   Direction: 190°S
Pressure: 29.93"   Gusts: NA
Location:  39.17°N, 96.91°W
Report Text: KFRI 211558Z AUTO 19012KT 10SM OVC011 05/05 A2993 RMK AO2 SLP139 T00540050
Loading
Personal Weather Stations






























Interactive Weather Map New forecast layout! Learn more

10-Day Weather Forecast

Advertisements
Track Severe Weather on mobile